sensor_id;sensor_type;location;lat;lon;timestamp;temperature;humidity
15700;DHT22;7950;42.744;23.174;2022-09-17T00:01:47;16.40;99.90
15700;DHT22;7950;42.744;23.174;2022-09-17T00:04:16;16.40;99.90
15700;DHT22;7950;42.744;23.174;2022-09-17T00:06:52;16.40;99.90
15700;DHT22;7950;42.744;23.174;2022-09-17T00:09:21;16.30;99.90
15700;DHT22;7950;42.744;23.174;2022-09-17T00:11:49;16.30;99.90
15700;DHT22;7950;42.744;23.174;2022-09-17T00:14:18;16.30;99.90
15700;DHT22;7950;42.744;23.174;2022-09-17T00:16:47;16.30;99.90
15700;DHT22;7950;42.744;23.174;2022-09-17T00:19:18;16.30;99.90
15700;DHT22;7950;42.744;23.174;2022-09-17T00:21:50;16.30;99.90
15700;DHT22;7950;42.744;23.174;2022-09-17T00:24:20;16.30;99.90
15700;DHT22;7950;42.744;23.174;2022-09-17T00:26:49;16.40;99.90
15700;DHT22;7950;42.744;23.174;2022-09-17T00:29:17;16.40;99.90
15700;DHT22;7950;42.744;23.174;2022-09-17T00:31:46;16.40;99.90
15700;DHT22;7950;42.744;23.174;2022-09-17T00:34:15;16.40;99.90
15700;DHT22;7950;42.744;23.174;2022-09-17T00:36:44;16.40;99.90
15700;DHT22;7950;42.744;23.174;2022-09-17T00:39:15;16.50;99.90
15700;DHT22;7950;42.744;23.174;2022-09-17T00:41:44;16.50;99.90
15700;DHT22;7950;42.744;23.174;2022-09-17T00:47:36;16.50;99.90
15700;DHT22;7950;42.744;23.174;2022-09-17T00:50:09;16.50;99.90
15700;DHT22;7950;42.744;23.174;2022-09-17T00:52:45;16.50;99.90
15700;DHT22;7950;42.744;23.174;2022-09-17T00:55:23;16.50;99.90
15700;DHT22;7950;42.744;23.174;2022-09-17T00:57:56;16.50;99.90
15700;DHT22;7950;42.744;23.174;2022-09-17T01:00:27;16.50;99.90
15700;DHT22;7950;42.744;23.174;2022-09-17T01:02:58;16.50;99.90
15700;DHT22;7950;42.744;23.174;2022-09-17T01:05:35;16.60;99.90
15700;DHT22;7950;42.744;23.174;2022-09-17T01:08:16;16.60;99.90
15700;DHT22;7950;42.744;23.174;2022-09-17T01:11:17;16.60;99.90
15700;DHT22;7950;42.744;23.174;2022-09-17T01:14:06;16.60;99.90
15700;DHT22;7950;42.744;23.174;2022-09-17T01:16:50;16.60;99.90
15700;DHT22;7950;42.744;23.174;2022-09-17T01:23:20;16.70;99.90
15700;DHT22;7950;42.744;23.174;2022-09-17T01:26:37;16.70;99.90
15700;DHT22;7950;42.744;23.174;2022-09-17T01:29:33;16.60;99.90
15700;DHT22;7950;42.744;23.174;2022-09-17T01:32:18;16.60;99.90
15700;DHT22;7950;42.744;23.174;2022-09-17T01:34:58;16.60;99.90
15700;DHT22;7950;42.744;23.174;2022-09-17T01:37:35;16.70;99.90
15700;DHT22;7950;42.744;23.174;2022-09-17T01:40:11;16.70;99.90
15700;DHT22;7950;42.744;23.174;2022-09-17T01:42:55;16.70;99.90
15700;DHT22;7950;42.744;23.174;2022-09-17T01:45:54;16.60;99.90
15700;DHT22;7950;42.744;23.174;2022-09-17T01:48:31;16.60;99.90
15700;DHT22;7950;42.744;23.174;2022-09-17T01:51:05;16.70;99.90
15700;DHT22;7950;42.744;23.174;2022-09-17T01:53:40;16.70;99.90
15700;DHT22;7950;42.744;23.174;2022-09-17T01:56:16;16.80;99.90
15700;DHT22;7950;42.744;23.174;2022-09-17T01:58:56;16.80;99.90
15700;DHT22;7950;42.744;23.174;2022-09-17T02:01:30;16.80;99.90
15700;DHT22;7950;42.744;23.174;2022-09-17T02:04:06;16.80;99.90
15700;DHT22;7950;42.744;23.174;2022-09-17T02:06:41;16.70;99.90
15700;DHT22;7950;42.744;23.174;2022-09-17T02:09:17;16.80;99.90
15700;DHT22;7950;42.744;23.174;2022-09-17T02:11:52;16.70;99.90
15700;DHT22;7950;42.744;23.174;2022-09-17T02:14:27;16.70;99.90
15700;DHT22;7950;42.744;23.174;2022-09-17T02:17:06;16.80;99.90
15700;DHT22;7950;42.744;23.174;2022-09-17T02:19:42;16.80;99.90
15700;DHT22;7950;42.744;23.174;2022-09-17T02:22:18;16.70;99.90
15700;DHT22;7950;42.744;23.174;2022-09-17T02:24:59;16.70;99.90
15700;DHT22;7950;42.744;23.174;2022-09-17T02:27:38;16.80;99.90
15700;DHT22;7950;42.744;23.174;2022-09-17T02:30:15;16.80;99.90
15700;DHT22;7950;42.744;23.174;2022-09-17T02:32:44;16.70;99.90
15700;DHT22;7950;42.744;23.174;2022-09-17T02:35:15;16.60;99.90
15700;DHT22;7950;42.744;23.174;2022-09-17T02:37:44;16.50;99.90
15700;DHT22;7950;42.744;23.174;2022-09-17T02:40:15;16.50;99.90
15700;DHT22;7950;42.744;23.174;2022-09-17T02:43:04;16.50;99.90
15700;DHT22;7950;42.744;23.174;2022-09-17T02:45:48;16.50;99.90
15700;DHT22;7950;42.744;23.174;2022-09-17T02:48:44;16.50;99.90
15700;DHT22;7950;42.744;23.174;2022-09-17T02:51:34;16.50;99.90
15700;DHT22;7950;42.744;23.174;2022-09-17T02:54:17;16.60;99.90
15700;DHT22;7950;42.744;23.174;2022-09-17T02:57:16;16.60;99.90
15700;DHT22;7950;42.744;23.174;2022-09-17T02:59:54;16.60;99.90
15700;DHT22;7950;42.744;23.174;2022-09-17T03:02:32;16.60;99.90
15700;DHT22;7950;42.744;23.174;2022-09-17T03:05:06;16.70;99.90
15700;DHT22;7950;42.744;23.174;2022-09-17T03:07:37;16.70;99.90
15700;DHT22;7950;42.744;23.174;2022-09-17T03:10:07;16.70;99.90
15700;DHT22;7950;42.744;23.174;2022-09-17T03:12:36;16.70;99.90
15700;DHT22;7950;42.744;23.174;2022-09-17T03:15:09;16.80;99.90
15700;DHT22;7950;42.744;23.174;2022-09-17T03:17:38;16.90;99.90
15700;DHT22;7950;42.744;23.174;2022-09-17T03:20:07;16.90;99.90
15700;DHT22;7950;42.744;23.174;2022-09-17T03:22:38;17.10;99.90
15700;DHT22;7950;42.744;23.174;2022-09-17T03:25:08;17.30;99.90
15700;DHT22;7950;42.744;23.174;2022-09-17T03:27:37;17.40;99.90
15700;DHT22;7950;42.744;23.174;2022-09-17T03:30:06;17.60;99.90
15700;DHT22;7950;42.744;23.174;2022-09-17T03:32:35;17.60;99.90
15700;DHT22;7950;42.744;23.174;2022-09-17T03:35:05;17.60;99.90
15700;DHT22;7950;42.744;23.174;2022-09-17T03:37:34;17.60;99.90
15700;DHT22;7950;42.744;23.174;2022-09-17T03:40:06;17.60;99.90
15700;DHT22;7950;42.744;23.174;2022-09-17T03:42:35;17.50;99.90
15700;DHT22;7950;42.744;23.174;2022-09-17T03:45:05;17.40;99.90
15700;DHT22;7950;42.744;23.174;2022-09-17T03:47:36;17.30;99.90
15700;DHT22;7950;42.744;23.174;2022-09-17T03:50:05;17.20;99.90
15700;DHT22;7950;42.744;23.174;2022-09-17T03:52:35;17.10;99.90
15700;DHT22;7950;42.744;23.174;2022-09-17T03:55:06;17.10;99.90
15700;DHT22;7950;42.744;23.174;2022-09-17T03:57:36;17.00;99.90
15700;DHT22;7950;42.744;23.174;2022-09-17T04:00:05;17.00;99.90
15700;DHT22;7950;42.744;23.174;2022-09-17T04:02:35;17.00;99.90
15700;DHT22;7950;42.744;23.174;2022-09-17T04:05:05;17.00;99.90
15700;DHT22;7950;42.744;23.174;2022-09-17T04:07:37;16.90;99.90
15700;DHT22;7950;42.744;23.174;2022-09-17T04:10:24;16.90;99.90
15700;DHT22;7950;42.744;23.174;2022-09-17T04:12:53;17.00;99.90
15700;DHT22;7950;42.744;23.174;2022-09-17T04:15:22;17.00;99.90
15700;DHT22;7950;42.744;23.174;2022-09-17T04:17:51;17.00;99.90
15700;DHT22;7950;42.744;23.174;2022-09-17T04:20:23;17.00;99.90
15700;DHT22;7950;42.744;23.174;2022-09-17T04:22:53;17.20;99.90
15700;DHT22;7950;42.744;23.174;2022-09-17T04:25:23;17.40;99.90
15700;DHT22;7950;42.744;23.174;2022-09-17T04:27:52;17.60;99.90
15700;DHT22;7950;42.744;23.174;2022-09-17T04:30:21;17.60;99.90
15700;DHT22;7950;42.744;23.174;2022-09-17T04:32:50;17.70;99.90
15700;DHT22;7950;42.744;23.174;2022-09-17T04:35:19;17.70;99.90
15700;DHT22;7950;42.744;23.174;2022-09-17T04:37:51;17.70;99.90
15700;DHT22;7950;42.744;23.174;2022-09-17T04:40:22;17.60;99.90
15700;DHT22;7950;42.744;23.174;2022-09-17T04:42:52;17.60;99.90
15700;DHT22;7950;42.744;23.174;2022-09-17T04:45:22;17.60;99.90
15700;DHT22;7950;42.744;23.174;2022-09-17T04:47:51;17.60;99.90
15700;DHT22;7950;42.744;23.174;2022-09-17T04:50:21;17.60;99.90
15700;DHT22;7950;42.744;23.174;2022-09-17T04:52:51;17.50;99.90
15700;DHT22;7950;42.744;23.174;2022-09-17T04:55:19;17.60;99.90
15700;DHT22;7950;42.744;23.174;2022-09-17T04:57:51;17.60;99.90
15700;DHT22;7950;42.744;23.174;2022-09-17T05:00:21;17.60;99.90
15700;DHT22;7950;42.744;23.174;2022-09-17T05:02:53;17.70;99.90
15700;DHT22;7950;42.744;23.174;2022-09-17T05:05:23;17.70;99.90
15700;DHT22;7950;42.744;23.174;2022-09-17T05:07:55;17.70;99.90
15700;DHT22;7950;42.744;23.174;2022-09-17T05:10:24;17.80;99.90
15700;DHT22;7950;42.744;23.174;2022-09-17T05:12:55;17.80;99.90
15700;DHT22;7950;42.744;23.174;2022-09-17T05:15:25;17.70;99.90
15700;DHT22;7950;42.744;23.174;2022-09-17T05:18:19;17.70;99.90
15700;DHT22;7950;42.744;23.174;2022-09-17T05:20:48;17.60;99.90
15700;DHT22;7950;42.744;23.174;2022-09-17T05:23:17;17.60;99.90
15700;DHT22;7950;42.744;23.174;2022-09-17T05:25:46;17.60;99.90
15700;DHT22;7950;42.744;23.174;2022-09-17T05:28:16;17.60;99.90
15700;DHT22;7950;42.744;23.174;2022-09-17T05:30:45;17.60;99.90
15700;DHT22;7950;42.744;23.174;2022-09-17T05:33:14;17.70;99.90
15700;DHT22;7950;42.744;23.174;2022-09-17T05:35:43;17.70;99.90
15700;DHT22;7950;42.744;23.174;2022-09-17T05:38:11;17.60;99.90
15700;DHT22;7950;42.744;23.174;2022-09-17T05:40:40;17.70;99.90
15700;DHT22;7950;42.744;23.174;2022-09-17T05:43:36;17.70;99.90
15700;DHT22;7950;42.744;23.174;2022-09-17T05:46:05;17.70;99.90
15700;DHT22;7950;42.744;23.174;2022-09-17T05:48:34;17.70;99.90
15700;DHT22;7950;42.744;23.174;2022-09-17T05:51:03;17.70;99.90
15700;DHT22;7950;42.744;23.174;2022-09-17T05:53:32;17.70;99.90
15700;DHT22;7950;42.744;23.174;2022-09-17T05:56:01;17.70;99.90
15700;DHT22;7950;42.744;23.174;2022-09-17T05:58:30;17.70;99.90
15700;DHT22;7950;42.744;23.174;2022-09-17T06:01:02;17.60;99.90
15700;DHT22;7950;42.744;23.174;2022-09-17T06:03:31;17.60;99.90
15700;DHT22;7950;42.744;23.174;2022-09-17T06:06:00;17.70;99.90
15700;DHT22;7950;42.744;23.174;2022-09-17T06:08:29;17.80;99.90
15700;DHT22;7950;42.744;23.174;2022-09-17T06:10:58;17.80;99.90
15700;DHT22;7950;42.744;23.174;2022-09-17T06:13:43;17.80;99.90
15700;DHT22;7950;42.744;23.174;2022-09-17T06:16:13;17.70;99.90
15700;DHT22;7950;42.744;23.174;2022-09-17T06:18:42;17.70;99.90
15700;DHT22;7950;42.744;23.174;2022-09-17T06:21:11;17.80;99.90
15700;DHT22;7950;42.744;23.174;2022-09-17T06:23:40;17.80;99.90
15700;DHT22;7950;42.744;23.174;2022-09-17T06:26:09;17.70;99.90
15700;DHT22;7950;42.744;23.174;2022-09-17T06:28:38;17.70;99.90
15700;DHT22;7950;42.744;23.174;2022-09-17T06:31:10;17.60;99.90
15700;DHT22;7950;42.744;23.174;2022-09-17T06:33:41;17.60;99.90
15700;DHT22;7950;42.744;23.174;2022-09-17T06:36:11;17.50;99.90
15700;DHT22;7950;42.744;23.174;2022-09-17T06:38:42;17.50;99.90
15700;DHT22;7950;42.744;23.174;2022-09-17T06:41:12;17.50;99.90
15700;DHT22;7950;42.744;23.174;2022-09-17T06:43:42;17.50;99.90
15700;DHT22;7950;42.744;23.174;2022-09-17T06:46:15;17.50;99.90
15700;DHT22;7950;42.744;23.174;2022-09-17T06:48:45;17.60;99.90
15700;DHT22;7950;42.744;23.174;2022-09-17T06:51:14;17.60;99.90
15700;DHT22;7950;42.744;23.174;2022-09-17T06:53:42;17.50;99.90
15700;DHT22;7950;42.744;23.174;2022-09-17T06:56:11;17.50;99.90
15700;DHT22;7950;42.744;23.174;2022-09-17T06:58:40;17.60;99.90
15700;DHT22;7950;42.744;23.174;2022-09-17T07:01:10;17.50;99.90
15700;DHT22;7950;42.744;23.174;2022-09-17T07:03:41;17.50;99.90
15700;DHT22;7950;42.744;23.174;2022-09-17T07:06:12;17.50;99.90
15700;DHT22;7950;42.744;23.174;2022-09-17T07:08:41;17.50;99.90
15700;DHT22;7950;42.744;23.174;2022-09-17T07:11:09;17.60;99.90
15700;DHT22;7950;42.744;23.174;2022-09-17T07:13:38;17.80;99.90
15700;DHT22;7950;42.744;23.174;2022-09-17T07:16:08;17.90;99.90
15700;DHT22;7950;42.744;23.174;2022-09-17T07:18:37;17.90;99.90
15700;DHT22;7950;42.744;23.174;2022-09-17T07:21:08;18.10;99.90
15700;DHT22;7950;42.744;23.174;2022-09-17T07:23:38;18.30;99.90
15700;DHT22;7950;42.744;23.174;2022-09-17T07:26:11;18.50;99.90
15700;DHT22;7950;42.744;23.174;2022-09-17T07:28:42;18.80;99.90
15700;DHT22;7950;42.744;23.174;2022-09-17T07:31:14;19.00;99.90
15700;DHT22;7950;42.744;23.174;2022-09-17T07:33:43;19.20;99.90
15700;DHT22;7950;42.744;23.174;2022-09-17T07:36:14;19.40;99.90
15700;DHT22;7950;42.744;23.174;2022-09-17T07:38:46;19.60;99.90
15700;DHT22;7950;42.744;23.174;2022-09-17T07:41:16;19.70;99.90
15700;DHT22;7950;42.744;23.174;2022-09-17T07:43:45;19.80;99.90
15700;DHT22;7950;42.744;23.174;2022-09-17T07:46:14;19.90;99.90
15700;DHT22;7950;42.744;23.174;2022-09-17T07:48:45;20.00;99.90
15700;DHT22;7950;42.744;23.174;2022-09-17T07:51:15;20.10;99.90
15700;DHT22;7950;42.744;23.174;2022-09-17T07:53:45;20.10;99.90
15700;DHT22;7950;42.744;23.174;2022-09-17T07:56:16;20.10;99.90
15700;DHT22;7950;42.744;23.174;2022-09-17T07:58:45;20.20;99.90
15700;DHT22;7950;42.744;23.174;2022-09-17T08:01:15;20.30;99.90
15700;DHT22;7950;42.744;23.174;2022-09-17T08:03:48;20.40;99.90
15700;DHT22;7950;42.744;23.174;2022-09-17T08:06:19;20.60;99.90
15700;DHT22;7950;42.744;23.174;2022-09-17T08:08:51;20.80;99.90
15700;DHT22;7950;42.744;23.174;2022-09-17T08:11:22;21.00;99.90
15700;DHT22;7950;42.744;23.174;2022-09-17T08:14:13;21.20;99.90
15700;DHT22;7950;42.744;23.174;2022-09-17T08:16:42;21.40;99.90
15700;DHT22;7950;42.744;23.174;2022-09-17T08:19:13;21.50;99.90
15700;DHT22;7950;42.744;23.174;2022-09-17T08:21:43;21.60;99.90
15700;DHT22;7950;42.744;23.174;2022-09-17T08:24:14;21.70;99.90
15700;DHT22;7950;42.744;23.174;2022-09-17T08:26:42;21.80;99.90
15700;DHT22;7950;42.744;23.174;2022-09-17T08:29:11;21.80;99.90
15700;DHT22;7950;42.744;23.174;2022-09-17T08:31:40;21.80;99.90
15700;DHT22;7950;42.744;23.174;2022-09-17T08:34:09;21.70;99.90
15700;DHT22;7950;42.744;23.174;2022-09-17T08:36:38;21.70;99.90
15700;DHT22;7950;42.744;23.174;2022-09-17T08:39:06;21.60;99.90
15700;DHT22;7950;42.744;23.174;2022-09-17T08:42:03;21.50;99.90
15700;DHT22;7950;42.744;23.174;2022-09-17T08:44:40;21.50;99.90
15700;DHT22;7950;42.744;23.174;2022-09-17T08:47:15;21.50;99.90
15700;DHT22;7950;42.744;23.174;2022-09-17T08:49:52;21.50;99.90
15700;DHT22;7950;42.744;23.174;2022-09-17T08:52:47;21.50;99.90
15700;DHT22;7950;42.744;23.174;2022-09-17T08:55:42;21.30;99.90
15700;DHT22;7950;42.744;23.174;2022-09-17T08:58:32;21.20;99.90
15700;DHT22;7950;42.744;23.174;2022-09-17T09:01:18;21.10;99.90
15700;DHT22;7950;42.744;23.174;2022-09-17T09:04:08;21.00;99.90
15700;DHT22;7950;42.744;23.174;2022-09-17T09:06:49;21.00;99.90
15700;DHT22;7950;42.744;23.174;2022-09-17T09:09:24;20.90;99.90
15700;DHT22;7950;42.744;23.174;2022-09-17T09:12:02;20.80;99.90
15700;DHT22;7950;42.744;23.174;2022-09-17T09:14:39;20.70;99.90
15700;DHT22;7950;42.744;23.174;2022-09-17T09:17:17;20.60;99.90
15700;DHT22;7950;42.744;23.174;2022-09-17T09:20:13;20.50;99.90
15700;DHT22;7950;42.744;23.174;2022-09-17T09:22:48;20.40;99.90
15700;DHT22;7950;42.744;23.174;2022-09-17T09:25:25;20.30;99.90
15700;DHT22;7950;42.744;23.174;2022-09-17T09:28:07;20.30;99.90
15700;DHT22;7950;42.744;23.174;2022-09-17T09:30:59;20.20;99.90
15700;DHT22;7950;42.744;23.174;2022-09-17T09:33:38;20.10;99.90
15700;DHT22;7950;42.744;23.174;2022-09-17T09:36:16;20.10;99.90
15700;DHT22;7950;42.744;23.174;2022-09-17T09:38:53;20.00;99.90
15700;DHT22;7950;42.744;23.174;2022-09-17T09:41:28;20.00;99.90
15700;DHT22;7950;42.744;23.174;2022-09-17T09:44:04;19.90;99.90
15700;DHT22;7950;42.744;23.174;2022-09-17T09:46:57;19.90;99.90
15700;DHT22;7950;42.744;23.174;2022-09-17T09:49:51;19.80;99.90
15700;DHT22;7950;42.744;23.174;2022-09-17T09:52:43;19.70;99.90
15700;DHT22;7950;42.744;23.174;2022-09-17T09:58:34;19.50;99.90
15700;DHT22;7950;42.744;23.174;2022-09-17T10:01:10;19.40;99.90
15700;DHT22;7950;42.744;23.174;2022-09-17T10:03:43;19.40;99.90
15700;DHT22;7950;42.744;23.174;2022-09-17T10:06:15;19.40;99.90
15700;DHT22;7950;42.744;23.174;2022-09-17T10:09:10;19.30;99.90
15700;DHT22;7950;42.744;23.174;2022-09-17T10:11:40;19.30;99.90
15700;DHT22;7950;42.744;23.174;2022-09-17T10:14:18;19.20;99.90
15700;DHT22;7950;42.744;23.174;2022-09-17T10:17:10;19.10;99.90
15700;DHT22;7950;42.744;23.174;2022-09-17T10:20:13;18.90;99.90
15700;DHT22;7950;42.744;23.174;2022-09-17T10:22:48;18.80;99.90
15700;DHT22;7950;42.744;23.174;2022-09-17T10:25:25;18.70;99.90
15700;DHT22;7950;42.744;23.174;2022-09-17T10:27:58;18.80;99.90
15700;DHT22;7950;42.744;23.174;2022-09-17T10:30:28;18.60;99.90
15700;DHT22;7950;42.744;23.174;2022-09-17T10:33:20;18.60;99.90
15700;DHT22;7950;42.744;23.174;2022-09-17T10:36:00;18.50;99.90
15700;DHT22;7950;42.744;23.174;2022-09-17T10:38:33;18.60;99.90
15700;DHT22;7950;42.744;23.174;2022-09-17T10:41:13;18.60;99.90
15700;DHT22;7950;42.744;23.174;2022-09-17T10:43:48;18.80;99.90
15700;DHT22;7950;42.744;23.174;2022-09-17T10:46:19;18.90;99.90
15700;DHT22;7950;42.744;23.174;2022-09-17T10:49:04;19.00;99.90
15700;DHT22;7950;42.744;23.174;2022-09-17T10:51:39;19.20;99.90
15700;DHT22;7950;42.744;23.174;2022-09-17T10:54:31;19.40;99.90
15700;DHT22;7950;42.744;23.174;2022-09-17T10:57:30;19.50;99.90
15700;DHT22;7950;42.744;23.174;2022-09-17T11:00:11;19.70;99.90
15700;DHT22;7950;42.744;23.174;2022-09-17T11:06:29;19.90;99.90
15700;DHT22;7950;42.744;23.174;2022-09-17T11:09:23;20.00;99.90
15700;DHT22;7950;42.744;23.174;2022-09-17T11:12:14;20.00;99.90
15700;DHT22;7950;42.744;23.174;2022-09-17T11:14:59;20.10;99.90
15700;DHT22;7950;42.744;23.174;2022-09-17T11:17:43;20.30;99.90
15700;DHT22;7950;42.744;23.174;2022-09-17T11:20:31;20.40;99.90
15700;DHT22;7950;42.744;23.174;2022-09-17T11:23:28;20.50;99.90
15700;DHT22;7950;42.744;23.174;2022-09-17T11:26:40;20.60;99.90
15700;DHT22;7950;42.744;23.174;2022-09-17T11:29:31;20.80;99.90
15700;DHT22;7950;42.744;23.174;2022-09-17T11:32:44;20.80;99.90
15700;DHT22;7950;42.744;23.174;2022-09-17T11:35:31;20.80;99.90
15700;DHT22;7950;42.744;23.174;2022-09-17T11:38:13;20.70;99.90
15700;DHT22;7950;42.744;23.174;2022-09-17T11:40:51;20.70;99.90
15700;DHT22;7950;42.744;23.174;2022-09-17T11:43:30;20.60;99.90
15700;DHT22;7950;42.744;23.174;2022-09-17T11:46:04;20.50;99.90
15700;DHT22;7950;42.744;23.174;2022-09-17T11:48:42;20.40;99.90
15700;DHT22;7950;42.744;23.174;2022-09-17T11:51:22;20.40;99.90
15700;DHT22;7950;42.744;23.174;2022-09-17T11:53:59;20.30;99.90
15700;DHT22;7950;42.744;23.174;2022-09-17T11:56:35;20.30;99.90
15700;DHT22;7950;42.744;23.174;2022-09-17T11:59:16;20.20;99.90
15700;DHT22;7950;42.744;23.174;2022-09-17T12:01:54;20.10;99.90
15700;DHT22;7950;42.744;23.174;2022-09-17T12:04:34;20.00;99.90
15700;DHT22;7950;42.744;23.174;2022-09-17T12:07:18;19.90;99.90
15700;DHT22;7950;42.744;23.174;2022-09-17T12:09:58;19.90;99.90
15700;DHT22;7950;42.744;23.174;2022-09-17T12:12:42;19.90;99.90
15700;DHT22;7950;42.744;23.174;2022-09-17T12:15:21;19.70;99.90
15700;DHT22;7950;42.744;23.174;2022-09-17T12:17:57;19.60;99.90
15700;DHT22;7950;42.744;23.174;2022-09-17T12:21:02;19.50;99.90
15700;DHT22;7950;42.744;23.174;2022-09-17T12:23:38;19.40;99.90
15700;DHT22;7950;42.744;23.174;2022-09-17T12:26:22;19.30;99.90
15700;DHT22;7950;42.744;23.174;2022-09-17T12:29:19;19.20;99.90
15700;DHT22;7950;42.744;23.174;2022-09-17T12:32:05;19.20;99.90
15700;DHT22;7950;42.744;23.174;2022-09-17T12:34:55;19.10;99.90
15700;DHT22;7950;42.744;23.174;2022-09-17T12:37:35;19.00;99.90
15700;DHT22;7950;42.744;23.174;2022-09-17T12:40:17;18.90;99.90
15700;DHT22;7950;42.744;23.174;2022-09-17T12:43:01;18.70;99.90
15700;DHT22;7950;42.744;23.174;2022-09-17T12:45:46;18.60;99.90
15700;DHT22;7950;42.744;23.174;2022-09-17T12:51:39;18.60;99.90
15700;DHT22;7950;42.744;23.174;2022-09-17T12:54:22;18.50;99.90
15700;DHT22;7950;42.744;23.174;2022-09-17T12:57:00;18.50;99.90
15700;DHT22;7950;42.744;23.174;2022-09-17T12:59:34;18.40;99.90
15700;DHT22;7950;42.744;23.174;2022-09-17T13:02:13;18.40;99.90
15700;DHT22;7950;42.744;23.174;2022-09-17T13:10:43;18.40;99.90
15700;DHT22;7950;42.744;23.174;2022-09-17T13:13:27;18.30;99.90
15700;DHT22;7950;42.744;23.174;2022-09-17T13:16:05;18.30;99.90
15700;DHT22;7950;42.744;23.174;2022-09-17T13:18:47;18.40;99.90
15700;DHT22;7950;42.744;23.174;2022-09-17T13:22:02;18.40;99.90
15700;DHT22;7950;42.744;23.174;2022-09-17T13:24:35;18.40;99.90
15700;DHT22;7950;42.744;23.174;2022-09-17T13:27:05;18.40;99.90
15700;DHT22;7950;42.744;23.174;2022-09-17T13:30:00;18.40;99.90
15700;DHT22;7950;42.744;23.174;2022-09-17T13:32:46;18.40;99.90
15700;DHT22;7950;42.744;23.174;2022-09-17T13:35:49;18.40;99.90
15700;DHT22;7950;42.744;23.174;2022-09-17T13:38:19;18.50;99.90
15700;DHT22;7950;42.744;23.174;2022-09-17T13:40:51;18.50;99.90
15700;DHT22;7950;42.744;23.174;2022-09-17T13:43:44;18.50;99.90
15700;DHT22;7950;42.744;23.174;2022-09-17T13:46:16;18.50;99.90
15700;DHT22;7950;42.744;23.174;2022-09-17T13:48:54;18.50;99.90
15700;DHT22;7950;42.744;23.174;2022-09-17T13:51:44;18.50;99.90
15700;DHT22;7950;42.744;23.174;2022-09-17T13:54:14;18.50;99.90
15700;DHT22;7950;42.744;23.174;2022-09-17T13:56:48;18.60;99.90
15700;DHT22;7950;42.744;23.174;2022-09-17T13:59:20;18.50;99.90
15700;DHT22;7950;42.744;23.174;2022-09-17T14:01:59;18.60;99.90
15700;DHT22;7950;42.744;23.174;2022-09-17T14:04:49;18.60;99.90
15700;DHT22;7950;42.744;23.174;2022-09-17T14:07:33;18.50;99.90
15700;DHT22;7950;42.744;23.174;2022-09-17T14:10:32;18.50;99.90
15700;DHT22;7950;42.744;23.174;2022-09-17T14:13:52;18.50;99.90
15700;DHT22;7950;42.744;23.174;2022-09-17T14:16:44;18.50;99.90
15700;DHT22;7950;42.744;23.174;2022-09-17T14:19:34;18.50;99.90
15700;DHT22;7950;42.744;23.174;2022-09-17T14:22:16;18.50;99.90
15700;DHT22;7950;42.744;23.174;2022-09-17T14:24:50;18.50;99.90
15700;DHT22;7950;42.744;23.174;2022-09-17T14:27:41;18.50;99.90
15700;DHT22;7950;42.744;23.174;2022-09-17T14:30:15;18.50;99.90
15700;DHT22;7950;42.744;23.174;2022-09-17T14:32:52;18.50;99.90
15700;DHT22;7950;42.744;23.174;2022-09-17T14:35:28;18.60;99.90
15700;DHT22;7950;42.744;23.174;2022-09-17T14:38:01;18.50;99.90
15700;DHT22;7950;42.744;23.174;2022-09-17T14:40:57;18.60;99.90
15700;DHT22;7950;42.744;23.174;2022-09-17T14:43:36;18.50;99.90
15700;DHT22;7950;42.744;23.174;2022-09-17T14:46:11;18.50;99.90
15700;DHT22;7950;42.744;23.174;2022-09-17T14:48:43;18.50;99.90
15700;DHT22;7950;42.744;23.174;2022-09-17T14:51:27;18.40;99.90
15700;DHT22;7950;42.744;23.174;2022-09-17T14:54:16;18.40;99.90
15700;DHT22;7950;42.744;23.174;2022-09-17T14:56:51;18.40;99.90
15700;DHT22;7950;42.744;23.174;2022-09-17T14:59:24;18.40;99.90
15700;DHT22;7950;42.744;23.174;2022-09-17T15:01:55;18.30;99.90
15700;DHT22;7950;42.744;23.174;2022-09-17T15:04:25;18.30;99.90
15700;DHT22;7950;42.744;23.174;2022-09-17T15:07:07;18.20;99.90
15700;DHT22;7950;42.744;23.174;2022-09-17T15:09:36;18.30;99.90
15700;DHT22;7950;42.744;23.174;2022-09-17T15:12:05;18.30;99.90
15700;DHT22;7950;42.744;23.174;2022-09-17T15:14:37;18.20;99.90
15700;DHT22;7950;42.744;23.174;2022-09-17T15:17:14;18.20;99.90
15700;DHT22;7950;42.744;23.174;2022-09-17T15:19:46;18.20;99.90
15700;DHT22;7950;42.744;23.174;2022-09-17T15:22:18;18.20;99.90
15700;DHT22;7950;42.744;23.174;2022-09-17T15:24:50;18.20;99.90
15700;DHT22;7950;42.744;23.174;2022-09-17T15:27:22;18.20;99.90
15700;DHT22;7950;42.744;23.174;2022-09-17T15:29:56;18.30;99.90
15700;DHT22;7950;42.744;23.174;2022-09-17T15:32:28;18.40;99.90
15700;DHT22;7950;42.744;23.174;2022-09-17T15:35:17;18.40;99.90
15700;DHT22;7950;42.744;23.174;2022-09-17T15:37:48;18.40;99.90
15700;DHT22;7950;42.744;23.174;2022-09-17T15:40:38;18.40;99.90
15700;DHT22;7950;42.744;23.174;2022-09-17T15:43:15;18.40;99.90
15700;DHT22;7950;42.744;23.174;2022-09-17T15:45:44;18.50;99.90
15700;DHT22;7950;42.744;23.174;2022-09-17T15:48:39;18.50;99.90
15700;DHT22;7950;42.744;23.174;2022-09-17T15:51:38;18.80;99.90
15700;DHT22;7950;42.744;23.174;2022-09-17T15:54:27;18.90;99.90
15700;DHT22;7950;42.744;23.174;2022-09-17T15:57:03;19.00;99.90
15700;DHT22;7950;42.744;23.174;2022-09-17T15:59:32;19.00;99.90
15700;DHT22;7950;42.744;23.174;2022-09-17T16:02:02;19.00;99.90
15700;DHT22;7950;42.744;23.174;2022-09-17T16:04:34;19.00;99.90
15700;DHT22;7950;42.744;23.174;2022-09-17T16:07:28;19.00;99.90
15700;DHT22;7950;42.744;23.174;2022-09-17T16:09:57;19.00;99.90
15700;DHT22;7950;42.744;23.174;2022-09-17T16:12:26;19.00;99.90
15700;DHT22;7950;42.744;23.174;2022-09-17T16:14:57;18.90;99.90
15700;DHT22;7950;42.744;23.174;2022-09-17T16:17:30;18.80;99.90
15700;DHT22;7950;42.744;23.174;2022-09-17T16:20:10;18.80;99.90
15700;DHT22;7950;42.744;23.174;2022-09-17T16:22:40;18.80;99.90
15700;DHT22;7950;42.744;23.174;2022-09-17T16:25:09;18.80;99.90
15700;DHT22;7950;42.744;23.174;2022-09-17T16:27:45;18.80;99.90
15700;DHT22;7950;42.744;23.174;2022-09-17T16:30:16;18.80;99.90
15700;DHT22;7950;42.744;23.174;2022-09-17T16:32:45;18.80;99.90
15700;DHT22;7950;42.744;23.174;2022-09-17T16:35:18;18.80;99.90
15700;DHT22;7950;42.744;23.174;2022-09-17T16:37:48;18.80;99.90
15700;DHT22;7950;42.744;23.174;2022-09-17T16:40:17;18.80;99.90
15700;DHT22;7950;42.744;23.174;2022-09-17T16:42:46;18.80;99.90
15700;DHT22;7950;42.744;23.174;2022-09-17T16:45:15;18.70;99.90
15700;DHT22;7950;42.744;23.174;2022-09-17T16:47:43;18.70;99.90
15700;DHT22;7950;42.744;23.174;2022-09-17T16:50:39;18.60;99.90
15700;DHT22;7950;42.744;23.174;2022-09-17T16:53:09;18.60;99.90